createdAt,value
2019-01-03T00:02:10.386Z,2.40
2019-01-03T00:04:59.447Z,2.93
2019-01-03T00:07:49.041Z,3.10
2019-01-03T00:10:37.799Z,2.80
2019-01-03T00:13:26.543Z,2.77
2019-01-03T00:16:15.186Z,2.33
2019-01-03T00:19:04.184Z,2.60
2019-01-03T00:21:53.012Z,3.20
2019-01-03T00:24:33.375Z,3.10
2019-01-03T00:27:22.326Z,3.20
2019-01-03T00:30:10.978Z,2.67
2019-01-03T00:32:59.628Z,2.40
2019-01-03T00:35:48.488Z,2.90
2019-01-03T00:38:37.074Z,2.20
2019-01-03T00:41:26.066Z,2.80
2019-01-03T00:44:10.079Z,2.20
2019-01-03T00:46:59.738Z,2.07
2019-01-03T00:49:47.278Z,2.40
2019-01-03T00:52:37.236Z,2.17
2019-01-03T00:55:26.406Z,2.17
2019-01-03T00:58:15.666Z,2.60
2019-01-03T01:01:05.656Z,2.53
2019-01-03T01:03:54.836Z,2.27
2019-01-03T01:06:43.798Z,2.43
2019-01-03T01:09:31.106Z,2.10
2019-01-03T01:12:19.647Z,2.53
2019-01-03T01:15:08.218Z,2.70
2019-01-03T01:17:57.076Z,2.00
2019-01-03T01:20:41.836Z,2.13
2019-01-03T01:23:30.886Z,2.43
2019-01-03T01:26:19.438Z,2.10
2019-01-03T01:29:08.300Z,2.60
2019-01-03T01:31:56.756Z,2.30
2019-01-03T01:34:42.429Z,2.53
2019-01-03T01:37:31.488Z,2.00
2019-01-03T01:40:19.348Z,1.60
2019-01-03T01:43:08.298Z,2.27
2019-01-03T01:45:57.065Z,1.70
2019-01-03T01:48:45.590Z,2.17
2019-01-03T01:51:34.457Z,2.53
2019-01-03T01:54:23.416Z,2.07
2019-01-03T01:57:12.268Z,2.27
2019-01-03T02:00:01.076Z,3.50
2019-01-03T02:02:43.737Z,2.33
2019-01-03T02:05:32.918Z,2.60
2019-01-03T02:08:21.776Z,2.10
2019-01-03T02:11:10.320Z,2.60
2019-01-03T02:13:58.976Z,2.00
2019-01-03T02:16:43.936Z,2.87
2019-01-03T02:19:32.886Z,2.93
2019-01-03T02:22:14.077Z,2.00
2019-01-03T02:25:01.818Z,1.80
2019-01-03T02:27:50.446Z,2.07
2019-01-03T02:30:38.189Z,1.93
2019-01-03T02:33:26.837Z,1.97
2019-01-03T02:36:15.589Z,2.10
2019-01-03T02:39:04.057Z,2.10
2019-01-03T02:41:53.618Z,2.27
2019-01-03T02:44:42.267Z,2.07
2019-01-03T02:47:30.836Z,1.60
2019-01-03T02:50:20.399Z,2.30
2019-01-03T02:53:09.878Z,2.10
2019-01-03T02:56:01.077Z,2.00
2019-01-03T02:58:52.089Z,2.17
2019-01-03T03:01:45.098Z,2.00
2019-01-03T03:04:34.936Z,1.97
2019-01-03T03:07:23.696Z,1.93
2019-01-03T03:10:13.058Z,2.10
2019-01-03T03:12:53.316Z,1.67
2019-01-03T03:15:41.879Z,1.77
2019-01-03T03:18:30.606Z,1.70
2019-01-03T03:21:19.277Z,1.53
2019-01-03T03:24:08.037Z,2.07
2019-01-03T03:26:53.197Z,2.07
2019-01-03T03:29:41.647Z,1.57
2019-01-03T03:32:30.721Z,1.60
2019-01-03T03:35:19.876Z,2.20
2019-01-03T03:38:05.976Z,2.00
2019-01-03T03:40:55.655Z,1.97
2019-01-03T03:43:45.436Z,1.67
2019-01-03T03:46:34.695Z,1.60
2019-01-03T03:49:18.527Z,1.50
2019-01-03T03:52:07.916Z,1.50
2019-01-03T03:54:56.878Z,1.80
2019-01-03T03:57:45.836Z,2.00
2019-01-03T04:00:34.799Z,1.77
2019-01-03T04:03:23.437Z,4.30
2019-01-03T04:06:12.088Z,1.83
2019-01-03T04:09:00.759Z,1.70
2019-01-03T04:11:50.835Z,1.70
2019-01-03T04:14:39.387Z,2.17
2019-01-03T04:17:27.926Z,1.93
2019-01-03T04:20:13.222Z,1.30
2019-01-03T04:23:02.477Z,2.97
2019-01-03T04:25:51.067Z,1.90
2019-01-03T04:28:39.880Z,1.67
2019-01-03T04:31:25.258Z,1.87
2019-01-03T04:34:14.009Z,2.70
2019-01-03T04:37:02.558Z,4.33
2019-01-03T04:39:51.437Z,3.33
2019-01-03T04:42:40.499Z,2.97
2019-01-03T04:45:21.066Z,2.50
2019-01-03T04:48:08.156Z,3.70
2019-01-03T04:50:57.539Z,2.20
2019-01-03T04:53:46.916Z,2.60
2019-01-03T04:56:35.669Z,3.53
2019-01-03T04:59:24.740Z,3.77
2019-01-03T05:02:13.696Z,2.97
2019-01-03T05:05:02.456Z,2.33
2019-01-03T05:07:51.417Z,2.30
2019-01-03T05:10:30.958Z,2.93
2019-01-03T05:13:20.216Z,2.53
2019-01-03T05:16:08.647Z,3.97
2019-01-03T05:18:57.418Z,2.20
2019-01-03T05:21:46.101Z,2.07
2019-01-03T05:24:35.066Z,2.93
2019-01-03T05:27:23.787Z,2.87
2019-01-03T05:30:18.221Z,2.20
2019-01-03T05:33:03.457Z,2.23
2019-01-03T05:35:52.416Z,2.67
2019-01-03T05:38:41.578Z,1.90
2019-01-03T05:41:31.778Z,2.47
2019-01-03T05:44:20.939Z,2.33
2019-01-03T05:47:09.798Z,2.13
2019-01-03T05:49:58.770Z,2.87
2019-01-03T05:52:47.818Z,1.93
2019-01-03T05:55:36.966Z,2.43
2019-01-03T05:58:26.037Z,3.17
2019-01-03T06:01:12.958Z,2.53
2019-01-03T06:04:02.926Z,2.47
2019-01-03T06:06:52.774Z,2.43
2019-01-03T06:09:39.838Z,2.27
2019-01-03T06:12:29.818Z,3.63
2019-01-03T06:15:19.597Z,4.33
2019-01-03T06:18:08.858Z,2.80
2019-01-03T06:20:57.818Z,4.93
2019-01-03T06:23:46.466Z,4.17
2019-01-03T06:26:35.227Z,4.20
2019-01-03T06:29:23.945Z,7.93
2019-01-03T06:32:12.858Z,4.17
2019-01-03T06:35:01.698Z,3.10
2019-01-03T06:37:50.257Z,3.23
2019-01-03T06:40:32.577Z,3.63
2019-01-03T06:43:21.318Z,3.27
2019-01-03T06:46:10.077Z,3.30
2019-01-03T06:48:58.840Z,4.20
2019-01-03T06:51:47.478Z,3.13
2019-01-03T06:54:35.958Z,3.83
2019-01-03T06:57:24.798Z,3.40
2019-01-03T07:00:13.437Z,4.20
2019-01-03T07:03:02.398Z,5.60
2019-01-03T07:05:51.158Z,6.00
2019-01-03T07:08:40.006Z,7.30
2019-01-03T07:11:28.777Z,7.83
2019-01-03T07:14:17.418Z,6.20
2019-01-03T07:17:06.379Z,5.20
2019-01-03T07:19:54.958Z,5.33
2019-01-03T07:22:43.898Z,5.20
2019-01-03T07:25:32.646Z,5.37
2019-01-03T07:28:21.438Z,5.13
2019-01-03T07:31:10.678Z,4.93
2019-01-03T07:33:59.438Z,5.90
2019-01-03T07:36:48.198Z,4.83
2019-01-03T07:39:37.078Z,8.30
2019-01-03T07:42:25.798Z,6.63
2019-01-03T07:45:15.077Z,6.57
2019-01-03T07:48:04.078Z,7.23
2019-01-03T07:50:52.999Z,8.00
2019-01-03T07:53:42.446Z,6.10
2019-01-03T07:56:31.318Z,6.00
2019-01-03T07:59:20.000Z,6.27
2019-01-03T08:02:08.838Z,6.83
2019-01-03T08:04:57.481Z,7.47
2019-01-03T08:07:46.678Z,7.33
2019-01-03T08:10:35.285Z,6.47
2019-01-03T08:13:24.358Z,6.40
2019-01-03T08:16:13.078Z,6.37
2019-01-03T08:18:52.558Z,6.10
2019-01-03T08:21:35.598Z,6.50
2019-01-03T08:24:24.438Z,8.17
2019-01-03T08:27:13.598Z,7.73
2019-01-03T08:29:59.798Z,6.73
2019-01-03T08:32:48.558Z,6.63
2019-01-03T08:35:37.708Z,7.73
2019-01-03T08:38:24.437Z,8.03
2019-01-03T08:41:13.278Z,9.37
2019-01-03T08:44:01.838Z,12.73
2019-01-03T08:46:50.597Z,8.73
2019-01-03T08:49:39.358Z,10.87
2019-01-03T08:52:27.998Z,10.20
2019-01-03T08:55:17.078Z,15.43
2019-01-03T08:58:06.038Z,10.50
2019-01-03T09:00:49.478Z,10.20
2019-01-03T09:03:38.318Z,11.30
2019-01-03T09:06:27.077Z,9.27
2019-01-03T09:09:15.958Z,8.50
2019-01-03T09:12:04.768Z,9.07
2019-01-03T09:14:53.757Z,10.40
2019-01-03T09:17:42.710Z,12.07
2019-01-03T09:20:31.448Z,13.50
2019-01-03T09:23:20.317Z,12.23
2019-01-03T09:26:05.286Z,11.07
2019-01-03T09:28:54.438Z,13.20
2019-01-03T09:31:43.206Z,14.27
2019-01-03T09:34:32.078Z,9.13
2019-01-03T09:37:18.070Z,8.70
2019-01-03T09:40:06.838Z,8.67
2019-01-03T09:42:55.365Z,10.27
2019-01-03T09:45:25.269Z,8.10
2019-01-03T09:47:55.089Z,9.30
2019-01-03T09:50:25.214Z,8.70
2019-01-03T09:52:56.078Z,10.80
2019-01-03T09:55:25.845Z,9.57
2019-01-03T09:57:56.165Z,10.33
2019-01-03T10:00:25.878Z,10.73
2019-01-03T10:02:55.807Z,12.90
2019-01-03T10:05:25.806Z,10.17
2019-01-03T10:07:56.645Z,9.67
2019-01-03T10:10:26.656Z,8.80
2019-01-03T10:12:56.598Z,9.13
2019-01-03T10:15:26.600Z,15.23
2019-01-03T10:17:56.606Z,18.43
2019-01-03T10:20:26.517Z,12.13
2019-01-03T10:22:56.431Z,8.80
2019-01-03T10:25:26.446Z,8.70
2019-01-03T10:27:56.678Z,8.17
2019-01-03T10:30:34.077Z,8.03
2019-01-03T10:33:04.494Z,7.60
2019-01-03T10:35:34.206Z,8.03
2019-01-03T10:38:05.446Z,6.70
2019-01-03T10:40:35.565Z,8.10
2019-01-03T10:43:06.406Z,7.30
2019-01-03T10:45:36.718Z,7.90
2019-01-03T10:48:06.443Z,7.40
2019-01-03T10:50:36.047Z,9.33
2019-01-03T10:53:06.158Z,7.90
2019-01-03T10:55:35.861Z,12.97
2019-01-03T10:58:05.806Z,8.13
2019-01-03T11:00:36.206Z,11.33
2019-01-03T11:03:06.320Z,8.30
2019-01-03T11:05:36.251Z,10.80
2019-01-03T11:08:06.366Z,7.10
2019-01-03T11:10:36.481Z,11.53
2019-01-03T11:13:06.391Z,7.60
2019-01-03T11:15:36.197Z,8.13
2019-01-03T11:18:06.230Z,8.70
2019-01-03T11:20:35.942Z,10.13
2019-01-03T11:23:06.767Z,9.70
2019-01-03T11:25:37.014Z,11.50
2019-01-03T11:28:07.405Z,9.47
2019-01-03T11:30:37.638Z,10.30
2019-01-03T11:33:07.759Z,10.37
2019-01-03T11:35:37.765Z,9.43
2019-01-03T11:38:08.201Z,7.07
2019-01-03T11:40:38.318Z,7.03
2019-01-03T11:43:08.325Z,6.80
2019-01-03T11:45:38.166Z,7.83
2019-01-03T11:48:10.830Z,6.33
2019-01-03T11:50:40.839Z,7.27
2019-01-03T11:53:13.409Z,7.87
2019-01-03T11:55:43.845Z,7.03
2019-01-03T11:58:13.766Z,6.97
2019-01-03T12:00:43.767Z,10.30
2019-01-03T12:03:13.886Z,6.93
2019-01-03T12:05:43.926Z,7.80
2019-01-03T12:08:14.325Z,7.73
2019-01-03T12:10:44.757Z,8.13
2019-01-03T12:13:14.998Z,7.90
2019-01-03T12:15:45.198Z,7.87
2019-01-03T12:18:15.349Z,6.50
2019-01-03T12:20:45.349Z,7.97
2019-01-03T12:23:15.757Z,6.97
2019-01-03T12:25:45.797Z,8.50
2019-01-03T12:28:15.797Z,8.57
2019-01-03T12:30:45.806Z,9.07
2019-01-03T12:33:18.290Z,8.80
2019-01-03T12:35:48.077Z,8.07
2019-01-03T12:38:19.350Z,6.93
2019-01-03T12:40:52.566Z,7.87
2019-01-03T12:43:24.078Z,8.47
2019-01-03T12:45:54.405Z,8.65
2019-01-03T12:48:32.838Z,6.57
2019-01-03T12:51:05.397Z,6.20
2019-01-03T12:53:36.748Z,8.17
2019-01-03T12:56:06.757Z,8.23
2019-01-03T12:58:37.390Z,7.57
2019-01-03T13:01:07.921Z,6.50
2019-01-03T13:03:38.749Z,5.93
2019-01-03T13:06:10.078Z,5.97
2019-01-03T13:08:40.743Z,7.93
2019-01-03T13:11:11.568Z,8.67
2019-01-03T13:13:41.806Z,9.17
2019-01-03T13:16:12.317Z,6.87
2019-01-03T13:18:42.958Z,7.83
2019-01-03T13:21:13.485Z,7.57
2019-01-03T13:23:44.637Z,4.97
2019-01-03T13:26:15.152Z,4.70
2019-01-03T13:28:45.365Z,4.63
2019-01-03T13:31:15.806Z,3.73
2019-01-03T13:33:46.326Z,5.47
2019-01-03T13:36:16.758Z,4.50
2019-01-03T13:38:48.808Z,7.27
2019-01-03T13:41:19.149Z,7.93
2019-01-03T13:43:49.381Z,7.80
2019-01-03T13:46:20.078Z,5.90
2019-01-03T13:48:50.006Z,18.07
2019-01-03T13:51:20.568Z,14.10
2019-01-03T13:53:51.077Z,9.27
2019-01-03T13:56:20.998Z,8.90
2019-01-03T13:58:51.438Z,7.43
2019-01-03T14:01:21.438Z,8.20
2019-01-03T14:03:51.446Z,7.77
2019-01-03T14:06:21.798Z,6.60
2019-01-03T14:08:51.997Z,6.97
2019-01-03T14:11:23.358Z,6.13
2019-01-03T14:13:53.869Z,8.70
2019-01-03T14:16:23.678Z,8.70
2019-01-03T14:18:55.637Z,7.33
2019-01-03T14:21:26.998Z,8.20
2019-01-03T14:23:57.317Z,7.87
2019-01-03T14:26:27.837Z,8.37
2019-01-03T14:28:57.845Z,10.33
2019-01-03T14:31:27.677Z,10.57
2019-01-03T14:33:58.001Z,8.77
2019-01-03T14:36:28.839Z,7.67
2019-01-03T14:39:00.598Z,8.73
2019-01-03T14:41:30.807Z,8.90
2019-01-03T14:44:01.078Z,10.53
2019-01-03T14:46:31.757Z,10.10
2019-01-03T14:49:01.999Z,10.17
2019-01-03T14:51:32.719Z,13.37
2019-01-03T14:54:02.838Z,12.57
2019-01-03T14:56:32.877Z,10.23
2019-01-03T14:59:03.078Z,10.63
2019-01-03T15:01:33.317Z,8.73
2019-01-03T15:04:07.809Z,10.93
2019-01-03T15:06:38.450Z,9.27
2019-01-03T15:09:08.798Z,6.83
2019-01-03T15:11:39.198Z,6.60
2019-01-03T15:14:09.439Z,8.50
2019-01-03T15:16:40.482Z,7.10
2019-01-03T15:19:10.918Z,7.60
2019-01-03T15:21:40.998Z,9.03
2019-01-03T15:24:11.838Z,7.60
2019-01-03T15:26:42.077Z,8.77
2019-01-03T15:29:12.277Z,7.77
2019-01-03T15:31:42.190Z,8.47
2019-01-03T15:34:12.718Z,8.53
2019-01-03T15:36:42.837Z,9.03
2019-01-03T15:39:12.758Z,9.60
2019-01-03T15:41:43.398Z,11.93
2019-01-03T15:44:13.838Z,8.50
2019-01-03T15:46:44.438Z,8.20
2019-01-03T15:49:23.367Z,7.83
2019-01-03T15:51:54.320Z,9.30
2019-01-03T15:54:24.838Z,9.63
2019-01-03T15:56:55.478Z,8.67
2019-01-03T15:59:26.432Z,6.73
2019-01-03T16:01:57.430Z,7.20
2019-01-03T16:04:28.490Z,7.40
2019-01-03T16:06:59.038Z,7.80
2019-01-03T16:09:29.561Z,9.47
2019-01-03T16:12:00.469Z,11.27
2019-01-03T16:14:31.318Z,8.93
2019-01-03T16:17:01.638Z,10.23
2019-01-03T16:19:31.678Z,9.40
2019-01-03T16:22:01.798Z,10.03
2019-01-03T16:24:32.078Z,10.63
2019-01-03T16:27:03.438Z,10.70
2019-01-03T16:29:34.086Z,9.93
2019-01-03T16:32:04.838Z,11.07
2019-01-03T16:34:35.238Z,11.47
2019-01-03T16:37:06.607Z,9.40
2019-01-03T16:39:38.958Z,8.33
2019-01-03T16:42:09.199Z,9.63
2019-01-03T16:44:39.838Z,13.17
2019-01-03T16:47:10.958Z,9.40
2019-01-03T16:49:41.918Z,8.67
2019-01-03T16:52:12.838Z,9.50
2019-01-03T16:54:43.678Z,13.57
2019-01-03T16:57:14.606Z,11.17
2019-01-03T16:59:46.477Z,12.63
2019-01-03T17:02:16.869Z,11.90
2019-01-03T17:04:47.822Z,9.27
2019-01-03T17:07:18.553Z,14.33
2019-01-03T17:09:48.878Z,16.07
2019-01-03T17:12:19.757Z,12.77
2019-01-03T17:14:50.077Z,11.13
2019-01-03T17:17:21.086Z,13.30
2019-01-03T17:19:51.200Z,11.30
2019-01-03T17:22:21.322Z,11.43
2019-01-03T17:24:51.758Z,11.87
2019-01-03T17:27:22.086Z,10.17
2019-01-03T17:29:52.718Z,9.80
2019-01-03T17:32:22.918Z,8.90
2019-01-03T17:34:52.959Z,10.80
2019-01-03T17:37:25.809Z,20.97
2019-01-03T17:39:56.078Z,11.63
2019-01-03T17:42:27.199Z,9.47
2019-01-03T17:44:57.406Z,11.70
2019-01-03T17:47:27.719Z,10.77
2019-01-03T17:49:57.831Z,10.17
2019-01-03T17:52:28.078Z,9.87
2019-01-03T17:54:59.840Z,8.30
2019-01-03T17:57:30.079Z,10.30
2019-01-03T18:00:00.448Z,8.80
2019-01-03T18:02:30.598Z,9.17
2019-01-03T18:05:00.838Z,14.20
2019-01-03T18:07:32.599Z,14.83
2019-01-03T18:10:02.806Z,16.23
2019-01-03T18:12:33.511Z,14.03
2019-01-03T18:15:03.838Z,13.27
2019-01-03T18:17:34.478Z,10.23
2019-01-03T18:20:05.330Z,9.63
2019-01-03T18:22:35.758Z,10.17
2019-01-03T18:25:05.649Z,9.30
2019-01-03T18:27:36.278Z,10.80
2019-01-03T18:30:07.038Z,10.57
2019-01-03T18:32:37.128Z,9.80
2019-01-03T18:35:07.478Z,10.70
2019-01-03T18:37:37.278Z,9.57
2019-01-03T18:40:08.838Z,11.17
2019-01-03T18:42:38.846Z,11.07
2019-01-03T18:45:10.502Z,9.57
2019-01-03T18:47:40.838Z,12.13
2019-01-03T18:50:11.478Z,18.93
2019-01-03T18:52:42.371Z,15.07
2019-01-03T18:55:13.638Z,11.30
2019-01-03T18:57:44.999Z,9.53
2019-01-03T19:00:16.638Z,8.10
2019-01-03T19:02:49.158Z,8.80
2019-01-03T19:05:21.078Z,9.33
2019-01-03T19:07:52.238Z,9.13
2019-01-03T19:10:28.300Z,9.87
2019-01-03T19:12:55.727Z,10.43
2019-01-03T19:15:26.368Z,10.67
2019-01-03T19:17:57.087Z,11.23
2019-01-03T19:20:27.430Z,12.17
2019-01-03T19:22:59.079Z,9.93
2019-01-03T19:25:37.646Z,11.57
2019-01-03T19:28:08.518Z,12.43
2019-01-03T19:30:44.711Z,13.37
2019-01-03T19:33:20.047Z,14.23
2019-01-03T19:35:50.758Z,16.40
2019-01-03T19:38:20.878Z,13.07
2019-01-03T19:40:51.206Z,11.77
2019-01-03T19:43:22.670Z,14.10
2019-01-03T19:46:08.334Z,14.67
2019-01-03T19:48:42.958Z,11.87
2019-01-03T19:51:17.472Z,13.63
2019-01-03T19:53:54.246Z,13.53
2019-01-03T19:56:31.083Z,12.63
2019-01-03T19:59:08.094Z,14.20
2019-01-03T20:01:44.477Z,14.00
2019-01-03T20:04:21.247Z,13.27
2019-01-03T20:06:59.358Z,12.53
2019-01-03T20:09:36.446Z,11.53
2019-01-03T20:12:13.918Z,12.83
2019-01-03T20:14:52.429Z,12.00
2019-01-03T20:17:29.311Z,11.50
2019-01-03T20:20:06.395Z,11.80
2019-01-03T20:22:42.487Z,10.63
2019-01-03T20:25:19.084Z,10.47
2019-01-03T20:27:56.526Z,10.83
2019-01-03T20:30:35.438Z,14.20
2019-01-03T20:33:50.326Z,16.17
2019-01-03T20:36:57.062Z,14.23
2019-01-03T20:39:51.597Z,14.10
2019-01-03T20:46:05.398Z,13.17
2019-01-03T20:48:46.319Z,13.00
2019-01-03T20:51:32.342Z,14.63
2019-01-03T20:54:27.438Z,12.70
2019-01-03T20:57:04.182Z,12.47
2019-01-03T20:59:47.206Z,12.53
2019-01-03T21:02:36.087Z,12.70
2019-01-03T21:05:37.609Z,11.60
2019-01-03T21:08:21.383Z,10.23
2019-01-03T21:10:59.078Z,10.70
2019-01-03T21:13:43.607Z,10.30
2019-01-03T21:16:30.769Z,11.37
2019-01-03T21:19:16.406Z,11.53
2019-01-03T21:21:59.839Z,11.63
2019-01-03T21:24:34.277Z,11.03
2019-01-03T21:27:39.423Z,9.60
2019-01-03T21:30:45.975Z,10.13
2019-01-03T23:36:15.486Z,8.80
2019-01-03T23:38:45.922Z,8.60
2019-01-03T23:41:16.518Z,9.27
2019-01-03T23:43:47.279Z,8.50
2019-01-03T23:46:18.205Z,9.13
2019-01-03T23:48:48.956Z,9.17
2019-01-03T23:51:19.274Z,9.57
2019-01-03T23:53:50.002Z,9.60
2019-01-03T23:56:20.834Z,10.70
2019-01-03T23:58:51.552Z,9.73
